createdAt,value
2022-09-03T00:01:44.568Z,49.08
2022-09-03T00:04:25.726Z,49.02
2022-09-03T00:06:59.283Z,49.46
2022-09-03T00:09:30.968Z,49.25
2022-09-03T00:12:02.816Z,49.64
2022-09-03T00:14:37.835Z,49.97
2022-09-03T00:17:11.612Z,49.23
2022-09-03T00:19:45.554Z,49.43
2022-09-03T00:22:16.752Z,49.09
2022-09-03T00:24:46.932Z,48.88
2022-09-03T00:27:18.864Z,49.03
2022-09-03T00:29:49.489Z,49.06
2022-09-03T00:32:19.871Z,49.20
2022-09-03T00:34:52.346Z,48.91
2022-09-03T00:37:21.533Z,49.40
2022-09-03T00:39:50.930Z,48.87
2022-09-03T00:42:29.610Z,49.24
2022-09-03T00:45:23.914Z,48.84
2022-09-03T00:48:03.927Z,48.88
2022-09-03T00:50:42.217Z,48.85
2022-09-03T00:53:16.053Z,49.20
2022-09-03T00:55:52.728Z,48.61
2022-09-03T00:58:41.210Z,48.70
2022-09-03T01:01:14.632Z,48.88
2022-09-03T01:03:51.363Z,49.09
2022-09-03T01:06:21.228Z,49.05
2022-09-03T01:09:05.283Z,49.11
2022-09-03T01:11:44.368Z,48.96
2022-09-03T01:14:20.217Z,48.94
2022-09-03T01:16:51.652Z,49.10
2022-09-03T01:19:56.670Z,49.15
2022-09-03T01:22:38.594Z,49.02
2022-09-03T01:25:17.687Z,49.27
2022-09-03T01:28:02.251Z,49.39
2022-09-03T01:30:32.694Z,49.22
2022-09-03T01:33:09.743Z,49.33
2022-09-03T01:35:45.349Z,49.45
2022-09-03T01:38:20.821Z,49.33
2022-09-03T01:40:56.067Z,49.34
2022-09-03T01:43:39.202Z,49.20
2022-09-03T01:46:14.056Z,49.40
2022-09-03T01:48:47.453Z,49.22
2022-09-03T01:51:21.723Z,49.72
2022-09-03T01:54:20.723Z,49.87
2022-09-03T01:57:12.685Z,49.84
2022-09-03T02:00:00.894Z,49.86
2022-09-03T02:02:30.826Z,50.06
2022-09-03T02:05:02.458Z,50.16
2022-09-03T02:07:34.794Z,50.03
2022-09-03T02:10:05.065Z,50.12
2022-09-03T02:12:34.724Z,50.30
2022-09-03T02:15:06.781Z,50.26
2022-09-03T02:17:35.012Z,50.51
2022-09-03T02:20:05.970Z,50.10
2022-09-03T02:22:34.411Z,50.54
2022-09-03T02:25:02.293Z,50.24
2022-09-03T02:27:30.122Z,50.53
2022-09-03T02:29:58.611Z,50.65
2022-09-03T02:32:27.922Z,50.46
2022-09-03T02:34:55.958Z,50.38
2022-09-03T02:37:24.107Z,50.55
2022-09-03T02:39:52.705Z,50.78
2022-09-03T02:42:20.687Z,50.79
2022-09-03T02:44:51.302Z,50.79
2022-09-03T02:47:20.680Z,50.70
2022-09-03T02:49:50.546Z,50.98
2022-09-03T02:52:18.365Z,51.27
2022-09-03T02:54:46.367Z,50.92
2022-09-03T02:57:16.256Z,50.81
2022-09-03T02:59:48.024Z,51.12
2022-09-03T03:02:15.979Z,51.41
2022-09-03T03:04:43.855Z,51.30
2022-09-03T03:07:13.044Z,51.31
2022-09-03T03:09:40.904Z,51.09
2022-09-03T03:12:10.290Z,51.21
2022-09-03T03:14:38.114Z,51.50
2022-09-03T03:17:06.295Z,51.33
2022-09-03T03:19:34.219Z,51.41
2022-09-03T03:22:01.996Z,51.71
2022-09-03T03:24:31.178Z,51.89
2022-09-03T03:26:59.343Z,51.81
2022-09-03T03:29:27.851Z,51.60
2022-09-03T03:31:56.020Z,51.86
2022-09-03T03:34:23.856Z,52.16
2022-09-03T03:36:51.711Z,52.60
2022-09-03T03:39:20.290Z,52.53
2022-09-03T03:41:49.515Z,52.61
2022-09-03T03:44:20.145Z,52.62
2022-09-03T03:46:47.978Z,52.45
2022-09-03T03:49:15.752Z,52.73
2022-09-03T03:51:43.613Z,52.92
2022-09-03T03:54:11.429Z,52.94
2022-09-03T03:56:42.319Z,53.35
2022-09-03T03:59:11.488Z,53.51
2022-09-03T04:01:39.316Z,53.37
2022-09-03T04:04:07.216Z,53.37
2022-09-03T04:06:35.164Z,53.59
2022-09-03T04:09:03.012Z,53.58
2022-09-03T04:11:30.826Z,53.60
2022-09-03T04:13:58.697Z,53.76
2022-09-03T04:16:29.074Z,53.93
2022-09-03T04:18:57.742Z,53.84
2022-09-03T04:21:28.419Z,53.89
2022-09-03T04:23:57.475Z,53.97
2022-09-03T04:26:27.575Z,54.29
2022-09-03T04:28:55.584Z,53.76
2022-09-03T04:31:23.399Z,54.44
2022-09-03T04:33:52.591Z,54.41
2022-09-03T04:36:21.940Z,54.36
2022-09-03T04:38:52.040Z,54.73
2022-09-03T04:41:21.683Z,54.71
2022-09-03T04:43:51.353Z,54.97
2022-09-03T04:46:20.678Z,55.06
2022-09-03T04:48:51.288Z,55.08
2022-09-03T04:51:22.364Z,55.06
2022-09-03T04:53:54.771Z,55.10
2022-09-03T04:56:24.961Z,54.96
2022-09-03T04:58:57.023Z,54.94
2022-09-03T05:01:27.225Z,55.54
2022-09-03T05:03:55.390Z,55.52
2022-09-03T05:06:25.634Z,55.61
2022-09-03T05:08:54.462Z,55.72
2022-09-03T05:11:22.838Z,55.66
2022-09-03T05:13:51.528Z,55.58
2022-09-03T05:16:21.789Z,55.89
2022-09-03T05:18:52.964Z,55.81
2022-09-03T05:21:21.313Z,55.76
2022-09-03T05:23:51.461Z,56.01
2022-09-03T05:26:20.626Z,55.77
2022-09-03T05:28:48.540Z,56.03
2022-09-03T05:31:17.738Z,55.83
2022-09-03T05:33:46.911Z,56.00
2022-09-03T05:36:16.368Z,56.15
2022-09-03T05:38:44.717Z,56.10
2022-09-03T05:41:14.708Z,56.36
2022-09-03T05:43:42.740Z,56.08
2022-09-03T05:46:11.881Z,56.36
2022-09-03T05:48:40.816Z,56.07
2022-09-03T05:51:09.852Z,56.01
2022-09-03T05:53:38.626Z,56.04
2022-09-03T05:56:10.821Z,55.93
2022-09-03T05:58:43.516Z,56.19
2022-09-03T06:01:12.910Z,56.36
2022-09-03T06:03:41.022Z,56.46
2022-09-03T06:06:09.147Z,56.20
2022-09-03T06:08:38.678Z,56.65
2022-09-03T06:11:07.362Z,56.60
2022-09-03T06:13:36.047Z,56.73
2022-09-03T06:16:07.543Z,56.61
2022-09-03T06:18:35.610Z,56.91
2022-09-03T06:21:05.477Z,57.01
2022-09-03T06:23:34.199Z,56.98
2022-09-03T06:26:06.665Z,56.71
2022-09-03T06:28:36.323Z,56.36
2022-09-03T07:04:25.165Z,56.36
2022-09-03T07:06:53.046Z,57.19
2022-09-03T07:09:20.840Z,57.45
2022-09-03T07:11:49.394Z,57.56
2022-09-03T07:14:18.403Z,57.25
2022-09-03T07:16:47.138Z,57.32
2022-09-03T07:19:15.097Z,57.37
2022-09-03T07:21:49.169Z,57.20
2022-09-03T07:24:18.193Z,57.17
2022-09-03T07:26:47.045Z,57.50
2022-09-03T07:29:16.048Z,57.23
2022-09-03T07:31:44.944Z,57.02
2022-09-03T07:34:15.113Z,57.18
2022-09-03T07:36:48.649Z,57.52
2022-09-03T07:39:17.807Z,57.53
2022-09-03T07:41:46.817Z,57.46
2022-09-03T07:44:15.427Z,57.72
2022-09-03T07:46:43.666Z,57.50
2022-09-03T07:49:11.609Z,57.44
2022-09-03T07:51:40.182Z,56.93
2022-09-03T07:54:11.421Z,56.44
2022-09-03T07:56:40.450Z,56.53
2022-09-03T07:59:08.923Z,55.51
2022-09-03T08:01:38.480Z,55.02
2022-09-03T08:04:11.060Z,55.08
2022-09-03T08:06:39.499Z,55.38
2022-09-03T08:09:11.358Z,55.40
2022-09-03T08:11:40.980Z,55.10
2022-09-03T08:14:10.139Z,55.47
2022-09-03T08:16:39.930Z,55.26
2022-09-03T08:19:08.937Z,55.29
2022-09-03T08:21:36.945Z,55.17
2022-09-03T08:24:05.845Z,54.96
2022-09-03T08:26:36.424Z,54.94
2022-09-03T08:29:05.221Z,54.82
2022-09-03T08:31:33.704Z,54.78
2022-09-03T08:34:06.938Z,54.84
2022-09-03T08:36:36.838Z,54.48
2022-09-03T08:39:09.955Z,54.50
2022-09-03T08:42:01.073Z,53.68
2022-09-03T08:44:30.842Z,53.57
2022-09-03T08:47:02.033Z,53.60
2022-09-03T08:49:34.094Z,53.72
2022-09-03T08:52:04.262Z,53.45
2022-09-03T08:54:33.144Z,52.73
2022-09-03T08:57:04.174Z,53.20
2022-09-03T08:59:33.400Z,53.18
2022-09-03T09:02:08.170Z,52.04
2022-09-03T09:04:46.542Z,51.41
2022-09-03T09:07:18.581Z,50.72
2022-09-03T09:09:52.472Z,50.58
2022-09-03T09:12:41.306Z,50.64
2022-09-03T09:15:15.609Z,50.24
2022-09-03T09:18:02.625Z,49.81
2022-09-03T09:20:37.550Z,49.88
2022-09-03T09:23:06.648Z,49.43
2022-09-03T09:25:39.466Z,48.97
2022-09-03T09:28:15.178Z,49.76
2022-09-03T09:30:44.041Z,48.94
2022-09-03T09:33:12.307Z,48.64
2022-09-03T09:35:42.420Z,49.22
2022-09-03T09:38:11.631Z,50.07
2022-09-03T09:40:44.624Z,48.78
2022-09-03T09:43:16.224Z,49.05
2022-09-03T09:48:31.576Z,48.80
2022-09-03T09:51:07.228Z,49.64
2022-09-03T09:53:35.333Z,49.67
2022-09-03T09:56:04.077Z,49.22
2022-09-03T09:58:34.487Z,50.03
2022-09-03T10:01:05.314Z,50.02
2022-09-03T10:03:35.066Z,51.04
2022-09-03T10:06:26.910Z,49.97
2022-09-03T10:08:56.867Z,50.54
2022-09-03T10:11:27.545Z,50.27
2022-09-03T10:13:57.383Z,50.82
2022-09-03T10:16:28.882Z,49.19
2022-09-03T10:19:04.460Z,49.15
2022-09-03T10:21:37.711Z,48.86
2022-09-03T10:24:16.985Z,49.64
2022-09-03T10:26:46.078Z,50.23
2022-09-03T10:29:19.539Z,49.77
2022-09-03T10:31:56.933Z,50.26
2022-09-03T10:34:37.213Z,49.73
2022-09-03T10:37:15.359Z,50.73
2022-09-03T10:40:01.724Z,49.51
2022-09-03T10:42:39.836Z,49.01
2022-09-03T10:45:17.922Z,48.83
2022-09-03T10:48:21.132Z,48.88
2022-09-03T10:50:53.703Z,49.55
2022-09-03T10:53:32.426Z,48.63
2022-09-03T10:56:02.990Z,47.85
2022-09-03T10:58:42.190Z,47.70
2022-09-03T11:01:16.021Z,47.62
2022-09-03T11:03:47.010Z,47.89
2022-09-03T11:06:19.818Z,48.31
2022-09-03T11:08:50.421Z,47.50
2022-09-03T11:11:22.749Z,47.52
2022-09-03T11:13:54.116Z,46.93
2022-09-03T11:16:27.052Z,47.43
2022-09-03T11:18:57.100Z,47.45
2022-09-03T11:21:26.719Z,47.39
2022-09-03T11:24:02.467Z,46.98
2022-09-03T11:26:30.913Z,47.10
2022-09-03T11:29:01.558Z,47.72
2022-09-03T11:31:40.287Z,47.94
2022-09-03T11:34:23.236Z,47.75
2022-09-03T11:36:51.388Z,48.06
2022-09-03T11:39:21.906Z,47.04
2022-09-03T11:41:59.611Z,47.69
2022-09-03T11:44:37.806Z,47.33
2022-09-03T11:47:21.657Z,47.14
2022-09-03T11:49:51.864Z,47.17
2022-09-03T11:52:29.508Z,47.83
2022-09-03T11:54:57.729Z,47.09
2022-09-03T11:57:29.761Z,48.47
2022-09-03T12:00:11.422Z,48.24
2022-09-03T12:02:45.542Z,48.83
2022-09-03T12:05:23.241Z,49.20
2022-09-03T12:08:30.859Z,48.64
2022-09-03T12:11:03.793Z,48.91
2022-09-03T12:13:43.268Z,49.38
2022-09-03T12:16:43.012Z,49.50
2022-09-03T12:19:22.200Z,49.18
2022-09-03T12:21:52.847Z,50.12
2022-09-03T12:24:23.310Z,50.25
2022-09-03T12:26:51.251Z,50.65
2022-09-03T12:29:27.819Z,51.08
2022-09-03T12:31:56.502Z,51.53
2022-09-03T12:34:27.450Z,51.55
2022-09-03T12:36:58.307Z,52.09
2022-09-03T12:42:21.544Z,52.23
2022-09-03T12:44:49.787Z,52.72
2022-09-03T12:50:11.248Z,53.51
2022-09-03T12:52:42.365Z,53.44
2022-09-03T12:55:27.669Z,53.67
2022-09-03T12:58:02.623Z,54.05
2022-09-03T13:00:33.088Z,55.07
2022-09-03T13:03:02.438Z,55.82
2022-09-03T13:05:35.199Z,56.81
2022-09-03T13:08:05.826Z,57.58
2022-09-03T13:10:36.915Z,58.79
2022-09-03T13:13:08.802Z,60.37
2022-09-03T13:15:36.617Z,62.00
2022-09-03T13:18:24.905Z,62.76
2022-09-03T13:21:08.106Z,63.43
2022-09-03T13:23:43.944Z,63.53
2022-09-03T13:26:22.645Z,64.15
2022-09-03T13:28:58.836Z,64.71
2022-09-03T13:31:31.391Z,65.60
2022-09-03T13:34:02.687Z,66.77
2022-09-03T13:36:35.417Z,68.01
2022-09-03T13:39:06.418Z,68.58
2022-09-03T13:41:39.389Z,69.76
2022-09-03T13:44:11.545Z,70.19
2022-09-03T13:46:45.410Z,70.87
2022-09-03T13:49:40.171Z,71.31
2022-09-03T13:52:16.080Z,71.57
2022-09-03T13:54:49.691Z,71.90
2022-09-03T13:57:28.192Z,72.36
2022-09-03T13:59:58.331Z,71.93
2022-09-03T14:02:35.137Z,72.08
2022-09-03T14:05:07.935Z,71.56
2022-09-03T14:07:51.340Z,71.61
2022-09-03T14:10:24.168Z,70.99
2022-09-03T14:13:01.750Z,70.97
2022-09-03T14:15:32.819Z,67.97
2022-09-03T14:18:13.766Z,67.35
2022-09-03T14:20:49.012Z,67.77
2022-09-03T14:23:32.686Z,66.52
2022-09-03T14:26:02.237Z,66.36
2022-09-03T14:28:32.972Z,66.16
2022-09-03T14:31:12.078Z,67.61
2022-09-03T14:33:45.822Z,67.69
2022-09-03T14:36:22.411Z,68.15
2022-09-03T14:39:09.222Z,68.71
2022-09-03T14:42:05.225Z,69.21
2022-09-03T14:45:20.353Z,69.69
2022-09-03T14:48:06.564Z,68.98
2022-09-03T14:50:51.724Z,68.77
2022-09-03T14:53:49.147Z,68.88
2022-09-03T14:56:26.016Z,68.86
2022-09-03T14:59:07.521Z,68.17
2022-09-03T15:01:39.259Z,66.74
2022-09-03T15:04:37.588Z,67.47
2022-09-03T15:07:28.070Z,68.16
2022-09-03T15:10:03.216Z,67.70
2022-09-03T15:12:38.191Z,67.64
2022-09-03T15:15:11.523Z,68.12
2022-09-03T15:17:57.523Z,69.32
2022-09-03T15:20:35.790Z,68.65
2022-09-03T15:23:21.160Z,68.60
2022-09-03T15:26:19.348Z,68.36
2022-09-03T15:28:58.577Z,68.39
2022-09-03T15:31:35.513Z,68.58
2022-09-03T15:34:12.755Z,68.33
2022-09-03T15:36:45.729Z,68.86
2022-09-03T15:39:21.475Z,69.13
2022-09-03T15:41:57.120Z,68.19
2022-09-03T15:44:27.670Z,67.88
2022-09-03T15:46:59.057Z,67.60
2022-09-03T15:49:48.203Z,67.10
2022-09-03T15:52:30.426Z,66.80
2022-09-03T15:55:04.058Z,66.49
2022-09-03T15:57:37.161Z,65.49
2022-09-03T16:00:10.477Z,66.46
2022-09-03T16:02:43.668Z,65.97
2022-09-03T16:05:16.353Z,67.00
2022-09-03T16:07:56.406Z,66.61
2022-09-03T16:10:36.785Z,65.96
2022-09-03T16:13:09.075Z,65.03
2022-09-03T16:15:42.298Z,65.38
2022-09-03T16:18:25.990Z,64.27
2022-09-03T16:20:57.378Z,64.40
2022-09-03T16:23:29.029Z,65.19
2022-09-03T16:26:00.027Z,65.87
2022-09-03T16:28:31.245Z,65.75
2022-09-03T16:31:08.985Z,66.37
2022-09-03T16:33:43.658Z,66.22
2022-09-03T16:36:24.692Z,66.88
2022-09-03T16:39:00.284Z,67.41
2022-09-03T16:41:31.703Z,67.84
2022-09-03T16:44:06.138Z,66.94
2022-09-03T16:46:42.119Z,67.78
2022-09-03T16:49:36.039Z,68.21
2022-09-03T16:52:12.388Z,68.08
2022-09-03T16:54:57.210Z,68.13
2022-09-03T16:57:36.951Z,67.77
2022-09-03T17:00:12.446Z,67.94
2022-09-03T17:03:25.127Z,67.85
2022-09-03T17:06:06.295Z,67.90
2022-09-03T17:08:43.289Z,67.82
2022-09-03T17:11:20.351Z,67.32
2022-09-03T17:14:01.777Z,67.09
2022-09-03T17:16:44.360Z,67.28
2022-09-03T17:19:19.816Z,67.03
2022-09-03T17:21:50.659Z,66.64
2022-09-03T17:24:36.034Z,66.83
2022-09-03T17:27:14.152Z,67.02
2022-09-03T17:29:56.495Z,66.85
2022-09-03T17:32:40.135Z,67.37
2022-09-03T17:35:13.307Z,67.52
2022-09-03T17:37:52.713Z,67.71
2022-09-03T17:40:27.569Z,67.69
2022-09-03T17:42:58.452Z,67.93
2022-09-03T17:45:38.595Z,68.74
2022-09-03T17:48:19.535Z,68.57
2022-09-03T17:50:52.291Z,68.90
2022-09-03T17:53:24.957Z,69.01
2022-09-03T17:55:57.605Z,69.10
2022-09-03T17:58:31.376Z,68.97
2022-09-03T18:01:09.061Z,69.88
2022-09-03T18:03:44.065Z,70.10
2022-09-03T18:06:23.963Z,70.28
2022-09-03T18:08:56.767Z,70.53
2022-09-03T18:11:33.797Z,70.61
2022-09-03T18:14:09.182Z,71.07
2022-09-03T18:16:39.109Z,71.12
2022-09-03T18:19:18.313Z,70.97
2022-09-03T18:22:06.204Z,70.17
2022-09-03T18:24:54.825Z,70.47
2022-09-03T18:27:47.377Z,70.24
2022-09-03T18:30:34.298Z,69.75
2022-09-03T18:33:19.609Z,70.28
2022-09-03T18:36:05.863Z,70.59
2022-09-03T18:38:55.113Z,70.27
2022-09-03T18:42:02.832Z,70.19
2022-09-03T18:48:20.270Z,69.99
2022-09-03T18:51:10.757Z,69.32
2022-09-03T18:54:05.659Z,69.44
2022-09-03T18:56:55.813Z,69.75
2022-09-03T18:59:52.797Z,70.09
2022-09-03T19:02:46.664Z,71.65
2022-09-03T19:05:36.214Z,71.56
2022-09-03T19:08:28.049Z,72.07
2022-09-03T19:11:20.115Z,72.54
2022-09-03T19:14:05.600Z,73.41
2022-09-03T19:17:00.732Z,73.56
2022-09-03T19:20:09.345Z,73.78
2022-09-03T19:22:56.366Z,73.85
2022-09-03T19:25:42.711Z,73.64
2022-09-03T19:28:35.268Z,74.28
2022-09-03T19:31:36.934Z,74.16
2022-09-03T19:34:28.513Z,73.91
2022-09-03T19:37:19.657Z,73.33
2022-09-03T19:40:17.077Z,74.71
2022-09-03T19:43:10.936Z,74.00
2022-09-03T19:46:05.260Z,74.35
2022-09-03T19:49:02.977Z,74.80
2022-09-03T19:51:51.681Z,74.34
2022-09-03T19:54:38.567Z,74.33
2022-09-03T19:57:24.079Z,74.35
2022-09-03T20:00:09.419Z,74.53
2022-09-03T20:02:57.141Z,74.40
2022-09-03T20:05:42.778Z,74.63
2022-09-03T20:08:31.413Z,75.19
2022-09-03T20:10:59.549Z,75.28
2022-09-03T20:13:28.513Z,75.33
2022-09-03T20:16:02.878Z,75.40
2022-09-03T20:18:40.300Z,76.08
2022-09-03T20:21:14.339Z,75.49
2022-09-03T20:23:48.744Z,75.00
2022-09-03T20:26:25.874Z,75.40
2022-09-03T20:29:04.463Z,75.43
2022-09-03T20:31:42.894Z,75.04
2022-09-03T20:34:21.512Z,74.51
2022-09-03T20:37:09.745Z,74.77
2022-09-03T20:39:45.208Z,74.86
2022-09-03T20:42:34.139Z,75.05
2022-09-03T20:45:06.636Z,75.15
2022-09-03T20:48:09.296Z,75.07
2022-09-03T20:50:50.956Z,75.00
2022-09-03T20:53:28.225Z,74.61
2022-09-03T20:55:59.601Z,74.34
2022-09-03T20:58:31.812Z,74.21
2022-09-03T21:01:04.832Z,74.06
2022-09-03T21:03:37.190Z,74.35
2022-09-03T21:06:16.080Z,74.30
2022-09-03T21:09:00.978Z,74.83
2022-09-03T21:11:36.379Z,75.03
2022-09-03T21:14:14.568Z,74.87
2022-09-03T21:16:49.919Z,75.02
2022-09-03T21:19:22.349Z,74.62
2022-09-03T21:21:59.525Z,75.24
2022-09-03T21:24:31.646Z,74.94
2022-09-03T21:27:02.977Z,75.28
2022-09-03T21:29:33.948Z,75.35
2022-09-03T21:32:05.417Z,75.82
2022-09-03T21:34:38.534Z,76.14
2022-09-03T21:37:11.876Z,76.06
2022-09-03T21:39:43.934Z,76.29
2022-09-03T21:42:17.721Z,75.68
2022-09-03T21:44:53.986Z,75.84
2022-09-03T21:47:24.704Z,76.43
2022-09-03T21:49:58.316Z,76.86
2022-09-03T21:52:32.701Z,76.48
2022-09-03T21:55:01.121Z,76.80
2022-09-03T21:57:34.194Z,77.16
2022-09-03T22:00:21.815Z,78.15
2022-09-03T22:02:50.943Z,78.08
2022-09-03T22:05:19.166Z,77.63
2022-09-03T22:08:04.987Z,77.75
2022-09-03T22:10:34.191Z,77.21
2022-09-03T22:13:14.868Z,77.60
2022-09-03T22:15:44.116Z,77.81
2022-09-03T22:18:19.339Z,77.55
2022-09-03T22:21:01.175Z,76.77
2022-09-03T22:23:43.599Z,76.88
2022-09-03T22:26:22.772Z,77.34
2022-09-03T22:29:00.536Z,77.22
2022-09-03T22:31:38.414Z,77.48
2022-09-03T22:34:17.065Z,77.61
2022-09-03T22:36:50.471Z,77.36
2022-09-03T22:39:25.875Z,76.95
2022-09-03T22:42:09.999Z,77.69
2022-09-03T22:44:57.092Z,77.68
2022-09-03T22:47:33.954Z,77.58
2022-09-03T22:50:13.420Z,78.40
2022-09-03T22:52:45.937Z,78.32
2022-09-03T22:55:18.464Z,78.32
2022-09-03T22:57:53.379Z,78.21
2022-09-03T23:00:21.242Z,78.63
2022-09-03T23:02:52.632Z,78.09
2022-09-03T23:05:31.502Z,78.15
2022-09-03T23:08:06.266Z,77.50
2022-09-03T23:10:55.097Z,77.77
2022-09-03T23:13:25.304Z,77.69
2022-09-03T23:16:00.864Z,78.08
2022-09-03T23:18:30.907Z,77.59
2022-09-03T23:21:05.958Z,77.23
2022-09-03T23:23:36.237Z,78.14
2022-09-03T23:26:13.610Z,77.70
2022-09-03T23:28:44.583Z,78.28
2022-09-03T23:31:22.600Z,78.12
2022-09-03T23:33:52.272Z,77.94
2022-09-03T23:36:55.085Z,77.58
2022-09-03T23:39:30.280Z,78.03
2022-09-03T23:42:06.922Z,78.44
2022-09-03T23:44:45.405Z,78.32
2022-09-03T23:47:20.849Z,78.77
2022-09-03T23:49:57.565Z,79.32
2022-09-03T23:52:44.285Z,79.28
2022-09-03T23:55:20.890Z,79.15
2022-09-03T23:57:55.551Z,79.00
